createdAt,value
2019-02-09T00:01:39.305Z,100222.41
2019-02-09T00:04:05.578Z,100220.13
2019-02-09T00:06:31.793Z,100219.69
2019-02-09T00:08:58.057Z,100221.63
2019-02-09T00:11:24.323Z,100223.06
2019-02-09T00:13:50.508Z,100218.95
2019-02-09T00:16:16.789Z,100221.47
2019-02-09T00:18:43.052Z,100211.97
2019-02-09T00:21:09.248Z,100222.08
2019-02-09T00:23:35.528Z,100222.30
2019-02-09T00:26:01.807Z,100218.77
2019-02-09T00:28:28.008Z,100227.28
2019-02-09T00:30:54.269Z,100223.73
2019-02-09T00:33:20.550Z,100229.47
2019-02-09T00:35:46.749Z,100221.47
2019-02-09T00:38:13.081Z,100220.78
2019-02-09T00:40:39.349Z,100219.19
2019-02-09T00:43:05.634Z,100220.11
2019-02-09T00:45:32.861Z,100216.42
2019-02-09T00:47:59.135Z,100210.04
2019-02-09T00:50:25.833Z,100208.70
2019-02-09T00:52:52.126Z,100202.16
2019-02-09T00:55:23.774Z,100208.67
2019-02-09T00:57:51.970Z,100204.53
2019-02-09T01:00:21.533Z,100205.85
2019-02-09T01:02:47.796Z,100206.59
2019-02-09T01:05:16.689Z,100198.48
2019-02-09T01:07:42.974Z,100199.23
2019-02-09T01:10:12.649Z,100199.06
2019-02-09T01:12:38.848Z,100197.69
2019-02-09T01:15:08.725Z,100198.34
2019-02-09T01:17:34.884Z,100199.25
2019-02-09T01:20:01.076Z,100199.03
2019-02-09T01:22:27.373Z,100200.21
2019-02-09T01:24:53.536Z,100197.05
2019-02-09T01:27:19.839Z,100200.66
2019-02-09T01:29:46.101Z,100205.77
2019-02-09T01:32:12.271Z,100194.05
2019-02-09T01:34:38.982Z,100200.54
2019-02-09T01:37:05.255Z,100194.23
2019-02-09T01:39:31.408Z,100191.27
2019-02-09T01:41:57.732Z,100194.14
2019-02-09T01:44:23.988Z,100191.98
2019-02-09T01:46:50.148Z,100192.31
2019-02-09T01:49:16.461Z,100193.69
2019-02-09T01:51:42.647Z,100188.81
2019-02-09T01:54:08.811Z,100191.82
2019-02-09T01:56:35.173Z,100190.91
2019-02-09T01:59:01.456Z,100192.73
2019-02-09T02:01:27.613Z,100185.16
2019-02-09T02:03:53.810Z,100192.31
2019-02-09T02:06:19.982Z,100187.91
2019-02-09T02:08:46.246Z,100186.85
2019-02-09T02:11:12.547Z,100184.02
2019-02-09T02:13:38.829Z,100180.44
2019-02-09T02:16:05.478Z,100182.84
2019-02-09T02:18:31.823Z,100185.39
2019-02-09T02:20:58.028Z,100181.58
2019-02-09T02:23:24.192Z,100183.08
2019-02-09T02:25:50.404Z,100185.55
2019-02-09T02:28:16.565Z,100183.11
2019-02-09T02:30:42.823Z,100188.34
2019-02-09T02:33:09.023Z,100186.84
2019-02-09T02:35:36.190Z,100186.03
2019-02-09T02:38:02.749Z,100188.70
2019-02-09T02:40:28.943Z,100187.77
2019-02-09T02:42:55.110Z,100193.16
2019-02-09T02:45:22.772Z,100190.02
2019-02-09T02:47:49.374Z,100189.83
2019-02-09T02:50:17.342Z,100186.48
2019-02-09T02:52:43.496Z,100194.79
2019-02-09T02:55:14.716Z,100194.45
2019-02-09T02:57:41.034Z,100197.13
2019-02-09T03:00:13.436Z,100194.85
2019-02-09T03:02:40.063Z,100195.25
2019-02-09T03:05:09.703Z,100195.52
2019-02-09T03:07:35.878Z,100192.51
2019-02-09T03:10:03.504Z,100194.95
2019-02-09T03:12:29.678Z,100195.80
2019-02-09T03:14:55.965Z,100196.20
2019-02-09T03:17:22.257Z,100188.95
2019-02-09T03:19:48.431Z,100186.52
2019-02-09T03:22:14.699Z,100181.97
2019-02-09T03:24:40.909Z,100180.27
2019-02-09T03:27:07.067Z,100177.89
2019-02-09T03:29:33.339Z,100169.53
2019-02-09T03:31:59.527Z,100178.44
2019-02-09T03:34:25.795Z,100177.45
2019-02-09T03:36:52.088Z,100179.61
2019-02-09T03:39:18.301Z,100176.25
2019-02-09T03:41:44.548Z,100183.09
2019-02-09T03:44:10.821Z,100183.05
2019-02-09T03:46:37.028Z,100183.52
2019-02-09T03:49:03.391Z,100177.80
2019-02-09T03:51:29.578Z,100179.73
2019-02-09T03:53:55.802Z,100178.45
2019-02-09T03:56:22.064Z,100183.16
2019-02-09T03:58:49.166Z,100181.14
2019-02-09T04:01:15.481Z,100178.75
2019-02-09T04:03:41.956Z,100177.14
2019-02-09T04:06:08.222Z,100178.55
2019-02-09T04:08:34.547Z,100177.88
2019-02-09T04:11:00.702Z,100180.50
2019-02-09T04:13:26.963Z,100193.65
2019-02-09T04:15:53.179Z,100181.91
2019-02-09T04:18:19.444Z,100177.77
2019-02-09T04:20:45.606Z,100182.65
2019-02-09T04:23:11.807Z,100178.62
2019-02-09T04:25:38.180Z,100176.96
2019-02-09T04:28:04.437Z,100174.77
2019-02-09T04:30:31.758Z,100177.62
2019-02-09T04:32:58.319Z,100179.98
2019-02-09T04:35:24.497Z,100176.59
2019-02-09T04:37:50.985Z,100183.17
2019-02-09T04:40:20.146Z,100187.34
2019-02-09T04:42:46.427Z,100179.61
2019-02-09T04:45:14.740Z,100185.27
2019-02-09T04:47:41.012Z,100181.30
2019-02-09T04:50:09.669Z,100178.76
2019-02-09T04:52:35.980Z,100177.80
2019-02-09T04:55:02.357Z,100178.44
2019-02-09T04:57:28.643Z,100174.91
2019-02-09T04:59:54.999Z,100172.40
2019-02-09T05:02:22.096Z,100177.23
2019-02-09T05:04:48.365Z,100174.26
2019-02-09T05:07:14.562Z,100179.14
2019-02-09T05:09:40.732Z,100187.34
2019-02-09T05:12:07.360Z,100182.50
2019-02-09T05:14:33.563Z,100174.77
2019-02-09T05:16:59.749Z,100174.24
2019-02-09T05:19:26.011Z,100173.72
2019-02-09T05:21:52.220Z,100174.72
2019-02-09T05:24:18.533Z,100171.23
2019-02-09T05:26:44.691Z,100173.06
2019-02-09T05:29:10.886Z,100170.91
2019-02-09T05:31:37.163Z,100167.89
2019-02-09T05:34:03.612Z,100170.56
2019-02-09T05:36:29.909Z,100170.73
2019-02-09T05:38:56.068Z,100166.67
2019-02-09T05:41:22.352Z,100170.38
2019-02-09T05:43:48.633Z,100171.91
2019-02-09T05:46:14.811Z,100155.94
2019-02-09T05:48:41.104Z,100167.53
2019-02-09T05:51:07.312Z,100163.50
2019-02-09T05:53:33.585Z,100173.91
2019-02-09T05:55:59.756Z,100164.30
2019-02-09T05:58:26.056Z,100165.27
2019-02-09T06:00:53.283Z,100174.67
2019-02-09T06:03:19.714Z,100171.16
2019-02-09T06:05:46.034Z,100173.84
2019-02-09T06:08:12.194Z,100170.36
2019-02-09T06:10:38.452Z,100178.91
2019-02-09T06:13:04.863Z,100183.02
2019-02-09T06:15:31.124Z,100185.55
2019-02-09T06:17:57.424Z,100176.23
2019-02-09T06:20:27.680Z,100178.91
2019-02-09T06:22:54.042Z,100180.92
2019-02-09T06:25:20.211Z,100178.45
2019-02-09T06:27:46.511Z,100177.67
2019-02-09T06:30:16.381Z,100177.12
2019-02-09T06:32:42.539Z,100179.53
2019-02-09T06:35:10.139Z,100178.52
2019-02-09T06:37:36.440Z,100179.78
2019-02-09T06:40:05.881Z,100180.18
2019-02-09T06:42:32.073Z,100180.15
2019-02-09T06:44:58.238Z,100180.66
2019-02-09T06:47:24.516Z,100182.91
2019-02-09T06:49:50.811Z,100186.36
2019-02-09T06:52:16.970Z,100187.86
2019-02-09T06:54:43.250Z,100186.95
2019-02-09T06:57:09.557Z,100183.06
2019-02-09T06:59:35.818Z,100182.73
2019-02-09T07:02:03.803Z,100182.22
2019-02-09T07:04:30.153Z,100193.95
2019-02-09T07:06:56.466Z,100184.80
2019-02-09T07:09:22.630Z,100183.95
2019-02-09T07:11:48.832Z,100184.53
2019-02-09T07:14:15.393Z,100186.49
2019-02-09T07:16:41.556Z,100188.94
2019-02-09T07:19:07.773Z,100185.66
2019-02-09T07:21:33.924Z,100187.77
2019-02-09T07:24:00.178Z,100185.77
2019-02-09T07:26:26.364Z,100194.80
2019-02-09T07:28:52.532Z,100194.05
2019-02-09T07:31:18.834Z,100191.69
2019-02-09T07:33:45.024Z,100179.08
2019-02-09T07:36:11.262Z,100180.13
2019-02-09T07:38:37.428Z,100185.41
2019-02-09T07:41:03.737Z,100189.12
2019-02-09T07:43:30.006Z,100191.56
2019-02-09T07:45:56.167Z,100183.77
2019-02-09T07:48:24.079Z,100188.23
2019-02-09T07:50:52.357Z,100184.96
2019-02-09T07:53:18.631Z,100174.81
2019-02-09T07:55:45.145Z,100180.28
2019-02-09T07:58:11.400Z,100183.99
2019-02-09T08:00:37.561Z,100176.92
2019-02-09T08:03:04.607Z,100176.45
2019-02-09T08:05:32.115Z,100173.39
2019-02-09T08:07:58.350Z,100169.09
2019-02-09T08:10:28.140Z,100172.84
2019-02-09T08:12:54.605Z,100164.89
2019-02-09T08:15:23.069Z,100162.81
2019-02-09T08:17:51.497Z,100165.14
2019-02-09T08:20:19.969Z,100161.23
2019-02-09T08:22:46.535Z,100163.34
2019-02-09T08:25:20.562Z,100164.70
2019-02-09T08:27:46.869Z,100162.63
2019-02-09T08:30:16.233Z,100167.80
2019-02-09T08:32:42.421Z,100166.03
2019-02-09T08:35:08.704Z,100169.42
2019-02-09T08:37:34.903Z,100164.23
2019-02-09T08:40:01.048Z,100156.97
2019-02-09T08:42:27.208Z,100151.41
2019-02-09T08:44:53.369Z,100159.65
2019-02-09T08:47:19.675Z,100157.16
2019-02-09T08:49:45.841Z,100155.55
2019-02-09T08:52:12.102Z,100153.78
2019-02-09T08:54:38.422Z,100154.80
2019-02-09T08:57:04.585Z,100156.23
2019-02-09T08:59:30.855Z,100158.61
2019-02-09T09:01:57.073Z,100166.20
2019-02-09T09:04:23.687Z,100154.92
2019-02-09T09:06:49.836Z,100153.34
2019-02-09T09:09:16.026Z,100160.56
2019-02-09T09:11:42.188Z,100148.63
2019-02-09T09:14:08.343Z,100149.08
2019-02-09T09:16:34.540Z,100156.05
2019-02-09T09:19:00.820Z,100153.23
2019-02-09T09:21:27.107Z,100152.32
2019-02-09T09:23:53.418Z,100150.52
2019-02-09T09:26:19.572Z,100147.73
2019-02-09T09:28:45.852Z,100140.70
2019-02-09T09:31:12.052Z,100136.64
2019-02-09T09:33:38.212Z,100136.00
2019-02-09T09:36:04.670Z,100145.56
2019-02-09T09:38:30.872Z,100140.49
2019-02-09T09:40:57.203Z,100130.83
2019-02-09T09:43:23.392Z,100129.56
2019-02-09T09:45:49.579Z,100140.72
2019-02-09T09:48:20.112Z,100144.05
2019-02-09T09:50:46.272Z,100135.19
2019-02-09T09:53:12.471Z,100131.44
2019-02-09T09:55:39.303Z,100138.78
2019-02-09T09:58:05.576Z,100136.43
2019-02-09T10:00:32.291Z,100140.79
2019-02-09T10:02:58.454Z,100145.03
2019-02-09T10:05:24.783Z,100146.30
2019-02-09T10:07:51.305Z,100135.66
2019-02-09T10:10:18.893Z,100138.87
2019-02-09T10:12:45.317Z,100129.53
2019-02-09T10:15:14.886Z,100138.08
2019-02-09T10:17:41.189Z,100121.01
2019-02-09T10:20:10.868Z,100123.30
2019-02-09T10:22:37.203Z,100118.02
2019-02-09T10:25:05.177Z,100116.80
2019-02-09T10:27:31.348Z,100118.80
2019-02-09T10:29:57.656Z,100119.89
2019-02-09T10:32:23.918Z,100114.95
2019-02-09T10:34:50.070Z,100112.73
2019-02-09T10:37:16.409Z,100105.89
2019-02-09T10:39:42.571Z,100106.73
2019-02-09T10:42:08.756Z,100103.20
2019-02-09T10:44:35.162Z,100095.89
2019-02-09T10:47:01.320Z,100093.97
2019-02-09T10:49:27.613Z,100089.67
2019-02-09T10:51:53.825Z,100093.69
2019-02-09T10:54:19.990Z,100097.64
2019-02-09T10:56:46.262Z,100095.87
2019-02-09T10:59:12.613Z,100082.81
2019-02-09T11:01:38.874Z,100087.16
2019-02-09T11:04:05.842Z,100087.27
2019-02-09T11:06:32.095Z,100082.80
2019-02-09T11:08:58.246Z,100083.80
2019-02-09T11:11:24.410Z,100077.66
2019-02-09T11:13:52.523Z,100076.64
2019-02-09T11:16:18.702Z,100068.63
2019-02-09T11:18:46.791Z,100068.97
2019-02-09T11:21:12.983Z,100060.23
2019-02-09T11:23:39.237Z,100057.86
2019-02-09T11:26:08.032Z,100062.48
2019-02-09T11:28:37.151Z,100054.30
2019-02-09T11:31:03.531Z,100053.25
2019-02-09T11:33:29.688Z,100052.69
2019-02-09T11:35:55.997Z,100043.13
2019-02-09T11:38:22.166Z,100058.95
2019-02-09T11:40:48.341Z,100044.22
2019-02-09T11:43:14.639Z,100047.41
2019-02-09T11:45:40.793Z,100046.96
2019-02-09T11:48:06.961Z,100050.93
2019-02-09T11:50:33.664Z,100046.05
2019-02-09T11:52:59.827Z,100042.89
2019-02-09T11:55:26.085Z,100043.56
2019-02-09T11:57:52.343Z,100030.91
2019-02-09T12:00:27.423Z,100029.66
2019-02-09T12:02:53.689Z,100029.97
2019-02-09T12:05:20.288Z,100026.97
2019-02-09T12:07:47.817Z,100027.13
2019-02-09T12:10:16.906Z,100031.42
2019-02-09T12:12:43.096Z,100034.96
2019-02-09T12:15:12.970Z,100033.25
2019-02-09T12:17:39.232Z,100019.30
2019-02-09T12:20:30.289Z,100013.16
2019-02-09T12:22:56.445Z,100005.79
2019-02-09T12:25:25.322Z,99995.99
2019-02-09T12:27:51.835Z,99999.04
2019-02-09T12:30:20.895Z,99993.29
2019-02-09T12:32:47.285Z,99990.57
2019-02-09T12:35:14.165Z,99983.09
2019-02-09T12:37:40.439Z,99982.64
2019-02-09T12:40:10.332Z,99983.13
2019-02-09T12:42:36.627Z,99976.65
2019-02-09T12:45:06.405Z,99979.58
2019-02-09T12:47:41.638Z,99983.28
2019-02-09T12:50:11.448Z,99989.98
2019-02-09T12:52:37.613Z,99986.56
2019-02-09T12:55:05.786Z,99983.63
2019-02-09T12:57:31.979Z,99986.81
2019-02-09T12:59:58.346Z,99971.55
2019-02-09T13:02:24.534Z,99975.25
2019-02-09T13:04:50.714Z,99971.27
2019-02-09T13:07:16.977Z,99974.38
2019-02-09T13:09:44.001Z,99967.30
2019-02-09T13:12:10.199Z,99973.14
2019-02-09T13:14:36.371Z,99977.97
2019-02-09T13:17:02.931Z,99967.70
2019-02-09T13:19:29.277Z,99968.09
2019-02-09T13:21:55.532Z,99967.98
2019-02-09T13:24:27.551Z,99969.45
2019-02-09T13:26:53.834Z,99980.09
2019-02-09T13:29:20.103Z,99978.80
2019-02-09T13:31:46.266Z,99981.47
2019-02-09T13:34:12.460Z,99982.70
2019-02-09T13:36:38.636Z,99981.64
2019-02-09T13:39:06.091Z,99980.70
2019-02-09T13:41:32.285Z,99978.20
2019-02-09T13:43:58.460Z,99983.12
2019-02-09T13:46:24.630Z,99981.77
2019-02-09T13:48:50.827Z,99988.14
2019-02-09T13:51:16.983Z,99981.88
2019-02-09T13:53:43.250Z,99975.73
2019-02-09T13:56:09.441Z,99980.02
2019-02-09T13:58:35.612Z,99973.91
2019-02-09T14:01:03.599Z,99977.63
2019-02-09T14:03:29.995Z,99980.45
2019-02-09T14:05:56.160Z,99985.62
2019-02-09T14:08:22.416Z,99981.43
2019-02-09T14:10:48.662Z,99981.56
2019-02-09T14:13:15.017Z,99980.93
2019-02-09T14:15:41.294Z,99984.66
2019-02-09T14:18:09.393Z,99982.89
2019-02-09T14:20:35.552Z,99981.92
2019-02-09T14:23:01.817Z,99987.19
2019-02-09T14:25:28.008Z,99986.23
2019-02-09T14:27:56.574Z,99983.36
2019-02-09T14:30:24.940Z,99988.28
2019-02-09T14:32:52.054Z,99991.72
2019-02-09T14:35:18.608Z,99990.05
2019-02-09T14:37:44.779Z,99995.80
2019-02-09T14:40:19.509Z,99989.88
2019-02-09T14:42:45.762Z,99985.83
2019-02-09T14:45:15.223Z,99990.09
2019-02-09T14:47:41.525Z,99986.11
2019-02-09T14:50:11.315Z,99981.45
2019-02-09T14:52:37.965Z,99987.29
2019-02-09T14:55:07.568Z,99984.22
2019-02-09T14:57:33.726Z,99983.39
2019-02-09T14:59:59.890Z,99983.62
2019-02-09T15:02:26.086Z,99986.61
2019-02-09T15:04:52.353Z,99989.15
2019-02-09T15:07:18.520Z,99992.28
2019-02-09T15:09:44.707Z,99985.48
2019-02-09T15:12:10.976Z,99989.41
2019-02-09T15:14:37.140Z,99992.79
2019-02-09T15:17:05.449Z,99985.09
2019-02-09T15:19:31.701Z,99983.57
2019-02-09T15:21:57.877Z,99987.63
2019-02-09T15:24:24.220Z,99983.58
2019-02-09T15:26:50.469Z,99986.10
2019-02-09T15:29:16.727Z,99976.33
2019-02-09T15:31:42.926Z,99986.08
2019-02-09T15:34:11.008Z,99979.25
2019-02-09T15:36:37.189Z,99978.97
2019-02-09T15:39:06.400Z,99982.47
2019-02-09T15:41:32.667Z,99980.33
2019-02-09T15:43:58.935Z,99981.39
2019-02-09T15:46:25.133Z,99981.14
2019-02-09T15:48:51.293Z,99985.01
2019-02-09T15:51:17.456Z,99980.70
2019-02-09T15:53:43.653Z,99988.01
2019-02-09T15:56:09.812Z,99989.09
2019-02-09T15:58:35.969Z,99979.02
2019-02-09T16:01:02.279Z,99981.84
2019-02-09T16:03:28.444Z,99982.42
2019-02-09T16:05:54.703Z,99992.44
2019-02-09T16:08:21.008Z,99993.97
2019-02-09T16:10:47.263Z,100002.41
2019-02-09T16:13:13.571Z,100005.63
2019-02-09T16:15:42.625Z,100006.97
2019-02-09T16:18:15.310Z,100011.76
2019-02-09T16:20:41.480Z,100007.88
2019-02-09T16:23:07.695Z,100001.88
2019-02-09T16:25:33.870Z,100008.27
2019-02-09T16:28:00.016Z,100009.75
2019-02-09T16:30:29.594Z,100011.87
2019-02-09T16:32:55.755Z,100000.56
2019-02-09T16:35:26.678Z,100008.55
2019-02-09T16:37:52.971Z,100012.59
2019-02-09T16:40:21.245Z,100014.08
2019-02-09T16:42:49.112Z,100014.52
2019-02-09T16:45:27.634Z,100018.92
2019-02-09T16:47:53.897Z,100023.16
2019-02-09T16:50:20.667Z,100022.04
2019-02-09T16:52:46.871Z,100021.09
2019-02-09T16:55:16.278Z,100012.02
2019-02-09T16:57:42.703Z,100019.56
2019-02-09T17:00:29.401Z,100025.45
2019-02-09T17:02:55.772Z,100026.81
2019-02-09T17:05:21.932Z,100036.41
2019-02-09T17:07:48.225Z,100040.95
2019-02-09T17:10:17.120Z,100039.11
2019-02-09T17:12:43.277Z,100043.47
2019-02-09T17:15:22.299Z,100043.13
2019-02-09T17:17:48.455Z,100035.25
2019-02-09T17:20:15.436Z,100042.98
2019-02-09T17:22:41.647Z,100044.67
2019-02-09T17:25:11.499Z,100050.37
2019-02-09T17:27:37.777Z,100054.00
2019-02-09T17:30:13.410Z,100049.66
2019-02-09T17:32:39.677Z,100055.38
2019-02-09T17:35:08.349Z,100055.70
2019-02-09T17:37:34.543Z,100056.55
2019-02-09T17:40:00.691Z,100054.35
2019-02-09T17:42:27.003Z,100052.48
2019-02-09T17:44:53.163Z,100058.02
2019-02-09T17:47:19.312Z,100055.34
2019-02-09T17:49:46.634Z,100053.98
2019-02-09T17:52:12.999Z,100055.62
2019-02-09T17:54:39.147Z,100056.45
2019-02-09T17:57:05.328Z,100052.25
2019-02-09T17:59:31.521Z,100062.57
2019-02-09T18:01:57.779Z,100057.17
2019-02-09T18:04:23.930Z,100058.36
2019-02-09T18:06:50.126Z,100060.86
2019-02-09T18:09:16.540Z,100061.67
2019-02-09T18:11:42.702Z,100060.54
2019-02-09T18:14:08.896Z,100066.86
2019-02-09T18:16:35.169Z,100066.48
2019-02-09T18:19:01.428Z,100060.81
2019-02-09T18:21:27.614Z,100062.47
2019-02-09T18:23:53.910Z,100058.98
2019-02-09T18:26:20.073Z,100057.08
2019-02-09T18:28:46.278Z,100053.22
2019-02-09T18:31:12.544Z,100053.03
2019-02-09T18:33:38.708Z,100054.22
2019-02-09T18:36:05.109Z,100057.55
2019-02-09T18:38:31.367Z,100050.54
2019-02-09T18:40:57.620Z,100049.02
2019-02-09T18:43:23.824Z,100055.70
2019-02-09T18:45:52.948Z,100061.02
2019-02-09T18:48:18.143Z,100060.36
2019-02-09T18:50:44.347Z,100060.02
2019-02-09T18:53:10.606Z,100066.43
2019-02-09T18:55:36.766Z,100065.38
2019-02-09T18:58:03.066Z,100060.58
2019-02-09T19:00:35.698Z,100056.23
2019-02-09T19:03:01.879Z,100054.44
2019-02-09T19:05:28.060Z,100060.64
2019-02-09T19:07:54.221Z,100063.64
2019-02-09T19:10:25.025Z,100066.73
2019-02-09T19:12:51.612Z,100064.46
2019-02-09T19:15:19.773Z,100069.64
2019-02-09T19:17:47.306Z,100067.62
2019-02-09T19:20:16.507Z,100062.98
2019-02-09T19:22:42.784Z,100065.44
2019-02-09T19:25:12.665Z,100065.56
2019-02-09T19:27:38.867Z,100064.88
2019-02-09T19:30:17.091Z,100058.95
2019-02-09T19:32:43.300Z,100059.56
2019-02-09T19:35:12.059Z,100059.14
2019-02-09T19:37:37.722Z,100065.76
2019-02-09T19:40:08.954Z,100057.75
2019-02-09T19:42:35.609Z,100059.91
2019-02-09T19:45:01.794Z,100054.91
2019-02-09T19:47:27.977Z,100057.77
2019-02-09T19:49:54.139Z,100051.41
2019-02-09T19:52:20.309Z,100059.25
2019-02-09T19:54:46.513Z,100055.80
2019-02-09T19:57:12.676Z,100061.02
2019-02-09T19:59:38.839Z,100058.84
2019-02-09T20:02:05.734Z,100061.70
2019-02-09T20:04:31.901Z,100061.63
2019-02-09T20:06:58.163Z,100052.56
2019-02-09T20:09:24.361Z,100057.56
2019-02-09T20:11:50.538Z,100061.38
2019-02-09T20:14:16.804Z,100055.20
2019-02-09T20:16:43.107Z,100061.61
2019-02-09T20:19:09.387Z,100058.92
2019-02-09T20:21:35.548Z,100059.11
2019-02-09T20:24:01.743Z,100054.09
2019-02-09T20:26:28.024Z,100063.81
2019-02-09T20:28:54.391Z,100061.07
2019-02-09T20:31:20.694Z,100060.44
2019-02-09T20:33:46.955Z,100059.97
2019-02-09T20:36:13.119Z,100061.77
2019-02-09T20:38:39.422Z,100054.98
2019-02-09T20:41:05.797Z,100051.28
2019-02-09T20:43:31.964Z,100052.75
2019-02-09T20:45:58.166Z,100054.05
2019-02-09T20:48:24.829Z,100049.95
2019-02-09T20:50:50.994Z,100045.44
2019-02-09T20:53:17.214Z,100048.42
2019-02-09T20:55:43.481Z,100048.91
2019-02-09T20:58:10.649Z,100048.91
2019-02-09T21:00:36.966Z,100052.52
2019-02-09T21:03:04.036Z,100057.09
2019-02-09T21:05:36.081Z,100058.19
2019-02-09T21:07:58.496Z,100048.84
2019-02-09T21:10:37.395Z,100058.22
2019-02-09T21:13:04.692Z,100065.48
2019-02-09T21:15:30.960Z,100060.20
2019-02-09T21:17:57.120Z,100056.86
2019-02-09T21:20:23.962Z,100060.60
2019-02-09T21:22:50.341Z,100058.22
2019-02-09T21:25:28.111Z,100060.78
2019-02-09T21:27:54.373Z,100051.89
2019-02-09T21:30:22.043Z,100052.47
2019-02-09T21:32:48.840Z,100046.11
2019-02-09T21:35:16.092Z,100049.06
2019-02-09T21:37:42.354Z,100052.40
2019-02-09T21:40:12.050Z,100051.41
2019-02-09T21:42:38.215Z,100067.48
2019-02-09T21:45:07.886Z,100061.89
2019-02-09T21:47:34.166Z,100060.39
2019-02-09T21:50:01.634Z,100063.98
2019-02-09T21:52:35.458Z,100065.05
2019-02-09T21:55:01.728Z,100069.39
2019-02-09T21:57:28.003Z,100065.51
2019-02-09T21:59:54.201Z,100072.55
2019-02-09T22:02:20.374Z,100077.31
2019-02-09T22:04:46.531Z,100077.33
2019-02-09T22:07:12.826Z,100078.41
2019-02-09T22:09:38.994Z,100080.28
2019-02-09T22:12:06.136Z,100077.33
2019-02-09T22:14:32.495Z,100079.04
2019-02-09T22:16:58.703Z,100087.69
2019-02-09T22:19:24.860Z,100083.92
2019-02-09T22:21:51.378Z,100085.01
2019-02-09T22:24:17.772Z,100081.72
2019-02-09T22:26:43.944Z,100083.58
2019-02-09T22:29:10.154Z,100086.26
2019-02-09T22:31:36.317Z,100091.75
2019-02-09T22:34:02.921Z,100084.30
2019-02-09T22:36:36.821Z,100086.32
2019-02-09T22:38:57.239Z,100086.66
2019-02-09T22:41:23.507Z,100081.78
2019-02-09T22:43:49.692Z,100078.30
2019-02-09T22:46:15.962Z,100085.86
2019-02-09T22:48:42.116Z,100089.81
2019-02-09T22:51:08.308Z,100085.86
2019-02-09T22:53:34.471Z,100087.53
2019-02-09T22:56:00.742Z,100092.13
2019-02-09T22:58:26.933Z,100089.58
2019-02-09T23:01:16.262Z,100088.78
2019-02-09T23:03:46.165Z,100094.09
2019-02-09T23:06:21.712Z,100101.81
2019-02-09T23:08:51.304Z,100095.92
2019-02-09T23:11:17.566Z,100092.55
2019-02-09T23:13:43.843Z,100092.15
2019-02-09T23:16:10.050Z,100091.67
2019-02-09T23:18:36.320Z,100088.15
2019-02-09T23:21:02.584Z,100085.27
2019-02-09T23:23:28.832Z,100086.56
2019-02-09T23:25:55.151Z,100082.73
2019-02-09T23:28:21.281Z,100080.14
2019-02-09T23:30:47.595Z,100081.18
2019-02-09T23:33:13.765Z,100079.39
2019-02-09T23:35:40.332Z,100072.02
2019-02-09T23:38:06.418Z,100067.06
2019-02-09T23:40:32.692Z,100068.73
2019-02-09T23:42:58.965Z,100070.26
2019-02-09T23:45:25.160Z,100065.52
2019-02-09T23:47:51.422Z,100064.83
2019-02-09T23:50:17.712Z,100058.41
2019-02-09T23:52:43.900Z,100048.73
2019-02-09T23:55:10.156Z,100041.64
2019-02-09T23:57:36.315Z,100037.05
